createdAt,value
2023-04-08T00:00:51.614Z,12.55
2023-04-08T00:03:21.641Z,13.45
2023-04-08T00:05:49.620Z,12.30
2023-04-08T00:08:17.386Z,12.88
2023-04-08T00:10:45.418Z,12.30
2023-04-08T00:13:13.333Z,12.93
2023-04-08T00:15:41.942Z,12.63
2023-04-08T00:18:09.827Z,13.55
2023-04-08T00:20:39.007Z,13.70
2023-04-08T00:23:06.858Z,12.93
2023-04-08T00:25:34.639Z,13.25
2023-04-08T00:28:02.531Z,13.07
2023-04-08T00:30:31.393Z,12.77
2023-04-08T00:32:59.720Z,11.93
2023-04-08T00:35:27.737Z,12.00
2023-04-08T00:37:57.009Z,11.95
2023-04-08T00:40:24.814Z,11.82
2023-04-08T00:42:52.601Z,11.52
2023-04-08T00:45:20.541Z,12.38
2023-04-08T00:47:52.599Z,11.13
2023-04-08T00:50:21.168Z,11.93
2023-04-08T00:52:48.930Z,12.05
2023-04-08T00:55:18.391Z,12.48
2023-04-08T00:57:47.167Z,12.32
2023-04-08T01:00:16.335Z,13.18
2023-04-08T01:02:48.500Z,12.68
2023-04-08T01:05:25.992Z,13.25
2023-04-08T01:07:54.054Z,12.63
2023-04-08T01:10:27.667Z,12.05
2023-04-08T01:12:57.455Z,12.77
2023-04-08T01:15:27.255Z,11.68
2023-04-08T01:17:56.588Z,12.18
2023-04-08T01:20:26.334Z,10.95
2023-04-08T01:23:07.383Z,10.55
2023-04-08T01:25:37.986Z,11.02
2023-04-08T01:28:09.853Z,10.20
2023-04-08T01:30:39.581Z,11.23
2023-04-08T01:33:08.455Z,10.68
2023-04-08T01:35:37.258Z,11.05
2023-04-08T01:38:06.842Z,9.95
2023-04-08T01:40:36.247Z,10.98
2023-04-08T01:43:06.619Z,10.45
2023-04-08T01:45:35.791Z,9.55
2023-04-08T01:48:04.689Z,10.20
2023-04-08T01:50:33.348Z,10.18
2023-04-08T01:53:03.237Z,9.55
2023-04-08T01:55:32.501Z,9.88
2023-04-08T01:58:02.441Z,9.77
2023-04-08T02:00:32.202Z,10.30
2023-04-08T02:03:02.308Z,9.75
2023-04-08T02:05:30.441Z,9.55
2023-04-08T02:07:58.187Z,9.77
2023-04-08T02:10:26.137Z,9.63
2023-04-08T02:12:53.936Z,8.75
2023-04-08T02:15:21.958Z,9.85
2023-04-08T02:17:56.117Z,10.13
2023-04-08T02:20:32.403Z,10.02
2023-04-08T02:23:07.134Z,9.35
2023-04-08T02:25:38.689Z,9.82
2023-04-08T02:28:10.618Z,10.68
2023-04-08T02:30:42.381Z,9.65
2023-04-08T02:33:11.228Z,10.07
2023-04-08T02:35:42.449Z,9.98
2023-04-08T02:40:38.512Z,9.57
2023-04-08T02:43:06.390Z,10.32
2023-04-08T02:45:39.070Z,9.55
2023-04-08T02:48:07.313Z,9.57
2023-04-08T02:50:35.524Z,10.07
2023-04-08T02:53:05.466Z,9.65
2023-04-08T02:58:02.264Z,9.25
2023-04-08T03:00:30.051Z,9.52
2023-04-08T03:02:58.047Z,9.63
2023-04-08T03:05:27.244Z,10.35
2023-04-08T03:07:55.049Z,9.98
2023-04-08T03:10:24.236Z,10.48
2023-04-08T03:12:52.121Z,9.88
2023-04-08T03:15:20.459Z,9.98
2023-04-08T03:17:48.239Z,11.43
2023-04-08T03:20:16.186Z,11.48
2023-04-08T03:22:43.948Z,10.40
2023-04-08T03:25:11.888Z,11.30
2023-04-08T03:27:41.006Z,12.23
2023-04-08T03:30:09.763Z,11.75
2023-04-08T03:32:37.725Z,12.43
2023-04-08T03:35:06.455Z,12.80
2023-04-08T03:37:34.267Z,13.13
2023-04-08T03:40:02.035Z,13.50
2023-04-08T03:42:29.783Z,13.63
2023-04-08T03:44:59.039Z,15.27
2023-04-08T03:47:27.298Z,14.35
2023-04-08T03:49:55.485Z,14.55
2023-04-08T03:52:24.322Z,14.80
2023-04-08T03:54:52.069Z,14.75
2023-04-08T03:57:19.820Z,14.85
2023-04-08T03:59:47.569Z,13.95
2023-04-08T04:02:16.745Z,14.13
2023-04-08T04:04:44.605Z,14.52
2023-04-08T04:07:12.351Z,13.90
2023-04-08T04:09:40.106Z,14.13
2023-04-08T04:12:07.873Z,13.48
2023-04-08T04:14:35.893Z,13.48
2023-04-08T04:17:03.699Z,13.38
2023-04-08T04:19:33.167Z,12.70
2023-04-08T04:22:00.950Z,13.15
2023-04-08T04:24:28.751Z,13.30
2023-04-08T04:26:56.558Z,13.68
2023-04-08T04:29:24.405Z,14.00
2023-04-08T04:31:52.205Z,13.68
2023-04-08T04:34:19.984Z,14.88
2023-04-08T04:36:49.069Z,14.52
2023-04-08T04:39:16.830Z,12.95
2023-04-08T04:41:44.763Z,14.20
2023-04-08T04:44:12.537Z,13.65
2023-04-08T04:46:40.486Z,13.88
2023-04-08T04:49:08.354Z,13.93
2023-04-08T04:51:36.110Z,13.88
2023-04-08T04:54:05.424Z,13.73
2023-04-08T04:56:33.240Z,13.43
2023-04-08T04:59:01.030Z,12.95
2023-04-08T05:01:29.136Z,13.90
2023-04-08T05:03:57.232Z,13.65
2023-04-08T05:06:26.437Z,13.30
2023-04-08T05:08:54.388Z,13.30
2023-04-08T05:11:23.510Z,13.02
2023-04-08T05:13:51.404Z,13.40
2023-04-08T05:16:19.310Z,13.30
2023-04-08T05:18:47.078Z,12.65
2023-04-08T05:21:14.880Z,12.93
2023-04-08T05:23:42.636Z,12.75
2023-04-08T05:26:10.516Z,12.65
2023-04-08T05:28:39.600Z,12.80
2023-04-08T05:31:07.489Z,12.15
2023-04-08T05:33:35.260Z,13.77
2023-04-08T05:36:03.189Z,11.80
2023-04-08T05:38:30.991Z,12.38
2023-04-08T05:40:58.731Z,11.82
2023-04-08T05:43:26.612Z,11.60
2023-04-08T05:45:56.106Z,12.43
2023-04-08T05:48:23.896Z,11.15
2023-04-08T05:50:51.671Z,10.45
2023-04-08T05:53:19.506Z,10.90
2023-04-08T05:55:47.276Z,11.10
2023-04-08T05:58:15.078Z,11.05
2023-04-08T06:00:42.875Z,11.48
2023-04-08T06:03:12.314Z,10.82
2023-04-08T06:05:40.550Z,11.30
2023-04-08T06:08:10.831Z,10.43
2023-04-08T06:10:39.022Z,10.38
2023-04-08T06:13:06.800Z,10.27
2023-04-08T06:15:34.585Z,11.07
2023-04-08T06:18:02.457Z,11.05
2023-04-08T06:20:31.663Z,10.75
2023-04-08T06:22:59.443Z,10.60
2023-04-08T06:25:27.337Z,11.15
2023-04-08T06:27:55.258Z,10.65
2023-04-08T06:30:23.315Z,10.48
2023-04-08T06:32:51.110Z,10.50
2023-04-08T06:35:19.341Z,10.27
2023-04-08T06:37:48.489Z,10.90
2023-04-08T06:40:16.355Z,10.65
2023-04-08T06:42:44.505Z,11.25
2023-04-08T06:45:35.500Z,10.93
2023-04-08T06:48:03.476Z,11.50
2023-04-08T06:50:31.565Z,10.65
2023-04-08T06:53:00.734Z,11.27
2023-04-08T06:55:28.515Z,10.50
2023-04-08T06:57:56.277Z,10.52
2023-04-08T07:00:24.099Z,10.45
2023-04-08T07:02:52.190Z,10.35
2023-04-08T07:05:20.085Z,10.35
2023-04-08T07:07:47.836Z,10.70
2023-04-08T07:10:17.300Z,10.38
2023-04-08T07:12:45.403Z,9.85
2023-04-08T07:15:13.203Z,10.05
2023-04-08T07:17:40.981Z,10.50
2023-04-08T07:20:09.641Z,9.63
2023-04-08T07:22:37.478Z,9.73
2023-04-08T07:25:05.645Z,9.60
2023-04-08T07:27:36.297Z,9.45
2023-04-08T07:30:04.986Z,9.23
2023-04-08T07:32:33.933Z,9.20
2023-04-08T07:35:02.064Z,9.00
2023-04-08T07:37:29.923Z,9.63
2023-04-08T07:39:57.773Z,9.38
2023-04-08T07:42:25.949Z,9.40
2023-04-08T07:44:55.389Z,9.13
2023-04-08T07:47:23.272Z,8.30
2023-04-08T07:49:51.295Z,9.73
2023-04-08T07:52:19.192Z,9.05
2023-04-08T07:54:47.121Z,8.77
2023-04-08T07:57:14.970Z,9.10
2023-04-08T07:59:43.115Z,8.98
2023-04-08T08:02:12.443Z,8.77
2023-04-08T08:04:40.857Z,8.68
2023-04-08T08:07:08.985Z,8.93
2023-04-08T08:09:36.828Z,8.70
2023-04-08T08:12:04.779Z,8.65
2023-04-08T08:14:32.618Z,8.40
2023-04-08T08:17:01.493Z,8.48
2023-04-08T08:19:30.694Z,9.18
2023-04-08T08:21:59.081Z,9.15
2023-04-08T08:24:27.454Z,9.10
2023-04-08T08:26:55.541Z,9.13
2023-04-08T08:29:23.296Z,8.65
2023-04-08T08:31:51.145Z,9.23
2023-04-08T08:34:18.979Z,8.95
2023-04-08T08:36:48.103Z,8.50
2023-04-08T08:39:15.861Z,9.48
2023-04-08T08:41:43.664Z,9.30
2023-04-08T08:44:12.093Z,9.65
2023-04-08T08:46:45.317Z,10.02
2023-04-08T08:49:13.520Z,9.65
2023-04-08T08:51:41.778Z,9.23
2023-04-08T08:54:10.899Z,10.02
2023-04-08T08:56:38.756Z,9.32
2023-04-08T08:59:06.607Z,9.57
2023-04-08T09:01:35.818Z,9.65
2023-04-08T09:04:16.955Z,9.60
2023-04-08T09:06:46.606Z,9.10
2023-04-08T09:09:16.011Z,8.90
2023-04-08T09:11:45.089Z,8.95
2023-04-08T09:14:20.617Z,9.30
2023-04-08T09:16:48.850Z,9.23
2023-04-08T09:19:16.720Z,8.50
2023-04-08T09:21:44.563Z,9.20
2023-04-08T09:24:30.291Z,8.25
2023-04-08T09:26:58.073Z,9.13
2023-04-08T09:29:29.919Z,9.10
2023-04-08T09:32:01.916Z,8.73
2023-04-08T09:34:32.379Z,9.20
2023-04-08T09:37:00.190Z,9.35
2023-04-08T09:39:27.927Z,9.85
2023-04-08T09:42:01.105Z,8.95
2023-04-08T09:44:31.158Z,9.38
2023-04-08T09:47:06.804Z,10.45
2023-04-08T09:49:39.311Z,9.73
2023-04-08T09:52:10.928Z,10.13
2023-04-08T09:54:45.456Z,9.30
2023-04-08T09:57:22.902Z,9.70
2023-04-08T09:59:57.166Z,8.70
2023-04-08T10:02:31.607Z,9.38
2023-04-08T10:05:01.291Z,8.73
2023-04-08T10:07:29.141Z,9.05
2023-04-08T10:09:58.757Z,9.32
2023-04-08T10:12:27.939Z,8.45
2023-04-08T10:15:24.070Z,8.82
2023-04-08T10:17:52.295Z,8.88
2023-04-08T10:20:42.904Z,7.85
2023-04-08T10:23:11.467Z,8.25
2023-04-08T10:25:41.380Z,7.90
2023-04-08T10:28:29.872Z,8.25
2023-04-08T10:30:58.690Z,9.05
2023-04-08T10:33:34.628Z,8.07
2023-04-08T10:36:11.314Z,7.50
2023-04-08T10:38:39.289Z,8.55
2023-04-08T10:41:07.172Z,8.23
2023-04-08T10:43:36.617Z,8.43
2023-04-08T10:46:05.014Z,8.10
2023-04-08T10:48:33.056Z,7.60
2023-04-08T10:51:02.023Z,7.82
2023-04-08T10:53:31.211Z,8.13
2023-04-08T10:56:07.114Z,8.05
2023-04-08T10:58:37.464Z,8.00
2023-04-08T11:01:07.435Z,8.70
2023-04-08T11:03:37.106Z,7.95
2023-04-08T11:06:05.834Z,8.48
2023-04-08T11:08:34.741Z,8.27
2023-04-08T11:11:02.857Z,8.05
2023-04-08T11:13:31.795Z,8.50
2023-04-08T11:16:02.638Z,7.82
2023-04-08T11:18:32.257Z,8.35
2023-04-08T11:21:00.557Z,7.43
2023-04-08T11:23:28.733Z,8.05
2023-04-08T11:25:57.092Z,8.07
2023-04-08T11:28:26.048Z,8.13
2023-04-08T11:30:55.256Z,7.63
2023-04-08T11:33:26.273Z,7.35
2023-04-08T11:35:54.080Z,7.30
2023-04-08T11:38:24.397Z,7.22
2023-04-08T11:40:55.444Z,7.40
2023-04-08T11:43:23.568Z,7.10
2023-04-08T11:45:51.628Z,7.35
2023-04-08T11:48:19.512Z,7.13
2023-04-08T11:50:50.739Z,7.53
2023-04-08T11:53:20.418Z,7.47
2023-04-08T11:55:48.890Z,7.13
2023-04-08T11:58:17.443Z,7.20
2023-04-08T12:00:45.629Z,7.18
2023-04-08T12:03:14.172Z,6.93
2023-04-08T12:05:42.534Z,6.78
2023-04-08T12:08:11.778Z,6.80
2023-04-08T12:10:39.630Z,6.43
2023-04-08T12:13:07.450Z,6.10
2023-04-08T12:15:35.265Z,5.78
2023-04-08T12:18:03.234Z,5.68
2023-04-08T12:20:31.092Z,5.72
2023-04-08T12:22:58.851Z,5.38
2023-04-08T12:25:29.118Z,5.22
2023-04-08T12:27:56.905Z,5.18
2023-04-08T12:30:24.735Z,4.80
2023-04-08T12:32:55.234Z,5.63
2023-04-08T12:35:23.156Z,4.97
2023-04-08T12:37:51.087Z,4.70
2023-04-08T12:40:19.220Z,5.10
2023-04-08T12:42:48.514Z,5.45
2023-04-08T12:45:16.282Z,4.75
2023-04-08T12:47:44.072Z,5.05
2023-04-08T12:50:11.919Z,5.03
2023-04-08T12:52:39.673Z,5.20
2023-04-08T12:55:08.412Z,5.00
2023-04-08T12:57:36.698Z,4.78
2023-04-08T13:00:07.040Z,4.00
2023-04-08T13:02:34.957Z,4.63
2023-04-08T13:05:02.899Z,4.82
2023-04-08T13:07:30.700Z,5.53
2023-04-08T13:09:58.477Z,5.40
2023-04-08T13:12:27.072Z,5.55
2023-04-08T13:14:55.217Z,5.53
2023-04-08T13:17:24.429Z,5.97
2023-04-08T13:19:52.493Z,6.65
2023-04-08T13:22:20.318Z,6.53
2023-04-08T13:24:48.077Z,7.80
2023-04-08T13:27:16.145Z,7.10
2023-04-08T13:29:44.028Z,6.60
2023-04-08T13:32:12.036Z,6.93
2023-04-08T13:34:42.469Z,6.50
2023-04-08T13:37:10.398Z,6.30
2023-04-08T13:39:38.145Z,6.90
2023-04-08T13:42:05.947Z,6.55
2023-04-08T13:44:34.063Z,6.10
2023-04-08T13:47:01.974Z,6.57
2023-04-08T13:49:29.781Z,6.35
2023-04-08T13:51:58.967Z,6.50
2023-04-08T13:54:27.292Z,6.80
2023-04-08T13:56:55.095Z,6.40
2023-04-08T13:59:22.872Z,6.93
2023-04-08T14:01:54.050Z,6.82
2023-04-08T14:04:22.602Z,6.28
2023-04-08T14:06:51.508Z,6.15
2023-04-08T14:09:20.928Z,6.80
2023-04-08T14:11:48.723Z,6.60
2023-04-08T14:14:16.806Z,6.95
2023-04-08T14:16:45.061Z,6.43
2023-04-08T14:19:13.248Z,6.57
2023-04-08T14:21:41.245Z,6.43
2023-04-08T14:24:09.108Z,6.43
2023-04-08T14:26:38.486Z,6.60
2023-04-08T14:29:07.365Z,6.47
2023-04-08T14:31:36.232Z,6.53
2023-04-08T14:34:04.518Z,6.47
2023-04-08T14:36:32.810Z,6.60
2023-04-08T14:39:00.814Z,5.82
2023-04-08T14:41:28.613Z,5.80
2023-04-08T14:43:57.779Z,5.72
2023-04-08T14:46:28.853Z,5.93
2023-04-08T14:48:57.079Z,6.05
2023-04-08T14:51:24.889Z,6.78
2023-04-08T14:53:52.665Z,6.75
2023-04-08T14:56:20.585Z,6.93
2023-04-08T14:58:48.360Z,7.10
2023-04-08T15:01:17.552Z,7.40
2023-04-08T15:03:45.396Z,7.15
2023-04-08T15:06:17.616Z,6.65
2023-04-08T15:08:45.738Z,6.82
2023-04-08T15:11:13.644Z,6.65
2023-04-08T15:13:41.597Z,7.38
2023-04-08T15:16:09.444Z,6.88
2023-04-08T15:18:38.651Z,7.32
2023-04-08T15:21:06.539Z,7.13
2023-04-08T15:23:34.342Z,7.40
2023-04-08T15:26:02.188Z,7.13
2023-04-08T15:28:30.269Z,7.75
2023-04-08T15:30:58.102Z,7.78
2023-04-08T15:33:26.121Z,7.88
2023-04-08T15:35:55.961Z,8.02
2023-04-08T15:38:23.939Z,7.60
2023-04-08T15:40:51.802Z,7.68
2023-04-08T15:43:19.575Z,7.47
2023-04-08T15:45:48.183Z,7.07
2023-04-08T15:48:15.971Z,7.07
2023-04-08T15:50:43.839Z,7.20
2023-04-08T15:53:13.064Z,7.07
2023-04-08T15:55:41.780Z,7.40
2023-04-08T15:58:09.650Z,7.28
2023-04-08T16:00:37.580Z,7.30
2023-04-08T16:03:08.349Z,6.88
2023-04-08T16:05:39.150Z,6.60
2023-04-08T16:08:07.605Z,7.13
2023-04-08T16:10:37.301Z,7.13
2023-04-08T16:13:05.059Z,7.43
2023-04-08T16:15:34.083Z,7.07
2023-04-08T16:18:03.022Z,8.48
2023-04-08T16:20:30.989Z,7.55
2023-04-08T16:22:58.808Z,8.00
2023-04-08T16:25:27.839Z,7.97
2023-04-08T16:27:57.490Z,8.55
2023-04-08T16:30:25.275Z,8.82
2023-04-08T16:32:53.132Z,8.45
2023-04-08T16:35:22.321Z,8.45
2023-04-08T16:37:50.169Z,8.50
2023-04-08T16:40:18.141Z,9.27
2023-04-08T16:42:46.071Z,10.80
2023-04-08T16:45:15.774Z,10.98
2023-04-08T16:47:44.450Z,10.75
2023-04-08T16:50:12.694Z,11.63
2023-04-08T16:52:40.447Z,11.32
2023-04-08T16:55:09.394Z,11.63
2023-04-08T16:57:37.286Z,11.55
2023-04-08T17:00:06.013Z,12.20
2023-04-08T17:02:35.391Z,11.77
2023-04-08T17:05:03.291Z,12.95
2023-04-08T17:07:31.830Z,12.38
2023-04-08T17:09:59.630Z,13.00
2023-04-08T17:12:27.740Z,12.90
2023-04-08T17:14:55.765Z,12.98
2023-04-08T17:17:23.638Z,12.95
2023-04-08T17:19:53.088Z,12.90
2023-04-08T17:22:21.458Z,13.95
2023-04-08T17:24:49.194Z,13.57
2023-04-08T17:27:16.958Z,13.98
2023-04-08T17:29:44.790Z,14.55
2023-04-08T17:32:13.636Z,13.80
2023-04-08T17:34:41.767Z,14.07
2023-04-08T17:37:11.177Z,13.63
2023-04-08T17:39:40.831Z,13.25
2023-04-08T17:42:09.077Z,14.23
2023-04-08T17:44:37.374Z,13.90
2023-04-08T17:47:05.193Z,13.20
2023-04-08T17:49:32.995Z,13.20
2023-04-08T17:52:00.849Z,13.38
2023-04-08T17:54:31.458Z,12.90
2023-04-08T17:56:59.246Z,12.73
2023-04-08T17:59:27.035Z,13.35
2023-04-08T18:01:54.997Z,12.60
2023-04-08T18:04:23.015Z,12.35
2023-04-08T18:06:50.826Z,13.18
2023-04-08T18:09:18.657Z,12.82
2023-04-08T18:11:47.781Z,12.80
2023-04-08T18:14:16.499Z,13.77
2023-04-08T18:16:44.433Z,13.07
2023-04-08T18:19:13.540Z,13.80
2023-04-08T18:21:41.367Z,13.30
2023-04-08T18:24:09.425Z,13.45
2023-04-08T18:26:37.301Z,13.60
2023-04-08T18:29:06.648Z,14.50
2023-04-08T18:31:34.613Z,14.43
2023-04-08T18:34:03.140Z,13.98
2023-04-08T18:36:31.625Z,14.20
2023-04-08T18:38:59.438Z,13.98
2023-04-08T18:41:28.940Z,14.27
2023-04-08T18:43:56.704Z,14.40
2023-04-08T18:46:25.980Z,14.20
2023-04-08T18:48:53.813Z,14.60
2023-04-08T18:51:21.613Z,13.57
2023-04-08T18:53:49.857Z,14.40
2023-04-08T18:56:18.359Z,14.75
2023-04-08T18:58:47.148Z,14.45
2023-04-08T19:01:16.164Z,14.32
2023-04-08T19:03:45.822Z,14.15
2023-04-08T19:06:14.531Z,14.48
2023-04-08T19:08:42.477Z,15.05
2023-04-08T19:11:10.320Z,14.65
2023-04-08T19:13:38.076Z,14.30
2023-04-08T19:16:06.488Z,14.45
2023-04-08T19:18:34.345Z,15.18
2023-04-08T19:21:03.563Z,15.02
2023-04-08T19:23:32.098Z,15.73
2023-04-08T19:25:59.854Z,15.60
2023-04-08T19:28:27.698Z,15.35
2023-04-08T19:30:55.519Z,14.63
2023-04-08T19:33:23.675Z,13.98
2023-04-08T19:35:51.520Z,13.23
2023-04-08T19:38:20.842Z,13.77
2023-04-08T19:40:48.881Z,13.48
2023-04-08T19:43:17.611Z,12.98
2023-04-08T19:45:45.459Z,12.40
2023-04-08T19:48:13.203Z,13.70
2023-04-08T19:50:41.386Z,12.65
2023-04-08T19:53:09.179Z,13.00
2023-04-08T19:55:38.367Z,12.80
2023-04-08T19:58:06.884Z,12.70
2023-04-08T20:00:37.235Z,13.45
2023-04-08T20:03:05.869Z,13.38
2023-04-08T20:05:33.963Z,12.98
2023-04-08T20:08:02.227Z,13.10
2023-04-08T20:10:31.645Z,13.85
2023-04-08T20:13:00.806Z,13.35
2023-04-08T20:15:28.648Z,13.70
2023-04-08T20:17:56.520Z,13.48
2023-04-08T20:20:26.694Z,13.85
2023-04-08T20:22:55.476Z,13.43
2023-04-08T20:25:23.728Z,13.18
2023-04-08T20:27:52.198Z,13.88
2023-04-08T20:30:21.420Z,13.95
2023-04-08T20:32:49.277Z,14.25
2023-04-08T20:35:17.441Z,13.68
2023-04-08T20:37:46.177Z,14.48
2023-04-08T20:40:15.867Z,13.65
2023-04-08T20:42:45.530Z,14.43
2023-04-08T20:45:13.396Z,14.07
2023-04-08T20:47:44.531Z,14.00
2023-04-08T20:50:13.215Z,14.50
2023-04-08T20:52:41.124Z,14.52
2023-04-08T20:55:09.906Z,14.18
2023-04-08T20:57:37.699Z,14.68
2023-04-08T21:00:06.566Z,14.20
2023-04-08T21:02:34.555Z,14.93
2023-04-08T21:05:04.106Z,13.73
2023-04-08T21:07:31.897Z,15.00
2023-04-08T21:09:59.967Z,14.77
2023-04-08T21:12:27.772Z,14.60
2023-04-08T21:14:55.594Z,14.75
2023-04-08T21:17:23.423Z,14.65
2023-04-08T21:19:51.958Z,14.73
2023-04-08T21:22:21.104Z,14.52
2023-04-08T21:24:48.874Z,15.05
2023-04-08T21:27:16.646Z,15.18
2023-04-08T21:29:44.456Z,15.15
2023-04-08T21:32:12.478Z,15.68
2023-04-08T21:34:40.992Z,15.05
2023-04-08T21:37:08.791Z,15.23
2023-04-08T21:39:37.992Z,14.60
2023-04-08T21:42:05.947Z,15.40
2023-04-08T21:44:33.757Z,14.70
2023-04-08T21:47:02.140Z,15.23
2023-04-08T21:49:30.712Z,15.23
2023-04-08T21:51:58.898Z,15.68
2023-04-08T21:54:26.710Z,15.95
2023-04-08T21:56:56.621Z,16.02
2023-04-08T21:59:24.409Z,16.17
2023-04-08T22:01:52.306Z,15.18
2023-04-08T22:04:20.507Z,15.95
2023-04-08T22:06:49.353Z,16.00
2023-04-08T22:09:17.286Z,16.27
2023-04-08T22:11:45.080Z,16.10
2023-04-08T22:14:15.391Z,15.95
2023-04-08T22:16:43.280Z,17.63
2023-04-08T22:19:11.175Z,16.90
2023-04-08T22:21:38.947Z,16.83
2023-04-08T22:24:07.050Z,17.38
2023-04-08T22:26:34.820Z,18.48
2023-04-08T22:29:02.727Z,16.90
2023-04-08T22:31:31.840Z,18.15
2023-04-08T22:33:59.592Z,19.48
2023-04-08T22:36:27.453Z,17.95
2023-04-08T22:38:55.445Z,18.50
2023-04-08T22:41:24.578Z,17.60
2023-04-08T22:43:52.409Z,17.90
2023-04-08T22:46:20.381Z,18.13
2023-04-08T22:48:50.174Z,18.55
2023-04-08T22:51:18.090Z,18.50
2023-04-08T22:53:46.060Z,18.42
2023-04-08T22:56:13.827Z,18.65
2023-04-08T22:58:41.633Z,18.02
2023-04-08T23:01:13.538Z,18.63
2023-04-08T23:03:41.641Z,18.33
2023-04-08T23:06:11.471Z,18.33
2023-04-08T23:08:39.753Z,18.58
2023-04-08T23:11:07.980Z,19.17
2023-04-08T23:13:35.998Z,17.08
2023-04-08T23:16:03.906Z,17.98
2023-04-08T23:18:31.743Z,18.25
2023-04-08T23:20:59.540Z,17.77
2023-04-08T23:23:28.865Z,19.85
2023-04-08T23:25:56.720Z,17.65
2023-04-08T23:28:24.862Z,18.08
2023-04-08T23:30:52.655Z,19.58
2023-04-08T23:33:20.549Z,18.98
2023-04-08T23:35:48.383Z,18.38
2023-04-08T23:38:16.204Z,19.55
2023-04-08T23:40:45.342Z,18.55
2023-04-08T23:43:13.111Z,18.90
2023-04-08T23:45:40.896Z,19.30
2023-04-08T23:48:10.155Z,18.55
2023-04-08T23:50:38.122Z,18.25
2023-04-08T23:53:05.949Z,18.23
2023-04-08T23:55:33.718Z,18.70
2023-04-08T23:58:02.872Z,18.55
